sensor_id;sensor_type;location;lat;lon;timestamp;P1;durP1;ratioP1;P2;durP2;ratioP2
33266;SDS011;19638;49.080;11.896;2022-07-26T00:03:55;6.50;;;5.85;;
33266;SDS011;19638;49.080;11.896;2022-07-26T00:07:58;12.95;;;5.82;;
33266;SDS011;19638;49.080;11.896;2022-07-26T00:12:13;11.55;;;6.25;;
33266;SDS011;19638;49.080;11.896;2022-07-26T00:16:17;10.60;;;6.25;;
33266;SDS011;19638;49.080;11.896;2022-07-26T00:20:21;9.77;;;5.07;;
33266;SDS011;19638;49.080;11.896;2022-07-26T00:24:28;10.63;;;5.70;;
33266;SDS011;19638;49.080;11.896;2022-07-26T00:28:37;11.77;;;6.20;;
33266;SDS011;19638;49.080;11.896;2022-07-26T00:32:41;6.45;;;4.88;;
33266;SDS011;19638;49.080;11.896;2022-07-26T00:36:45;8.18;;;5.80;;
33266;SDS011;19638;49.080;11.896;2022-07-26T00:40:48;8.90;;;6.32;;
33266;SDS011;19638;49.080;11.896;2022-07-26T00:44:53;8.35;;;6.40;;
33266;SDS011;19638;49.080;11.896;2022-07-26T00:48:57;19.90;;;7.88;;
33266;SDS011;19638;49.080;11.896;2022-07-26T00:53:00;11.25;;;7.13;;
33266;SDS011;19638;49.080;11.896;2022-07-26T00:57:04;11.68;;;7.55;;
33266;SDS011;19638;49.080;11.896;2022-07-26T01:01:09;14.43;;;8.10;;
33266;SDS011;19638;49.080;11.896;2022-07-26T01:05:12;10.93;;;7.65;;
33266;SDS011;19638;49.080;11.896;2022-07-26T01:09:16;12.90;;;7.82;;
33266;SDS011;19638;49.080;11.896;2022-07-26T01:13:20;12.88;;;7.43;;
33266;SDS011;19638;49.080;11.896;2022-07-26T01:17:24;13.05;;;8.15;;
33266;SDS011;19638;49.080;11.896;2022-07-26T01:21:29;15.27;;;8.98;;
33266;SDS011;19638;49.080;11.896;2022-07-26T01:25:33;13.00;;;8.90;;
33266;SDS011;19638;49.080;11.896;2022-07-26T01:29:44;15.80;;;8.85;;
33266;SDS011;19638;49.080;11.896;2022-07-26T01:33:47;13.80;;;8.30;;
33266;SDS011;19638;49.080;11.896;2022-07-26T01:37:52;14.45;;;8.57;;
33266;SDS011;19638;49.080;11.896;2022-07-26T01:41:55;16.10;;;8.98;;
33266;SDS011;19638;49.080;11.896;2022-07-26T01:45:59;12.32;;;9.43;;
33266;SDS011;19638;49.080;11.896;2022-07-26T01:50:03;16.10;;;9.73;;
33266;SDS011;19638;49.080;11.896;2022-07-26T01:54:10;14.07;;;8.82;;
33266;SDS011;19638;49.080;11.896;2022-07-26T01:58:13;12.43;;;8.90;;
33266;SDS011;19638;49.080;11.896;2022-07-26T02:02:17;13.82;;;9.25;;
33266;SDS011;19638;49.080;11.896;2022-07-26T02:06:20;13.75;;;9.50;;
33266;SDS011;19638;49.080;11.896;2022-07-26T02:10:25;13.02;;;9.48;;
33266;SDS011;19638;49.080;11.896;2022-07-26T02:14:49;15.38;;;8.60;;
33266;SDS011;19638;49.080;11.896;2022-07-26T02:18:52;17.17;;;9.48;;
33266;SDS011;19638;49.080;11.896;2022-07-26T02:22:55;15.00;;;9.43;;
33266;SDS011;19638;49.080;11.896;2022-07-26T02:27:00;14.30;;;9.25;;
33266;SDS011;19638;49.080;11.896;2022-07-26T02:31:03;14.35;;;10.13;;
33266;SDS011;19638;49.080;11.896;2022-07-26T02:35:07;14.38;;;9.52;;
33266;SDS011;19638;49.080;11.896;2022-07-26T02:39:10;12.98;;;9.68;;
33266;SDS011;19638;49.080;11.896;2022-07-26T02:43:15;13.32;;;9.70;;
33266;SDS011;19638;49.080;11.896;2022-07-26T02:47:18;13.80;;;10.05;;
33266;SDS011;19638;49.080;11.896;2022-07-26T02:51:21;18.83;;;11.20;;
33266;SDS011;19638;49.080;11.896;2022-07-26T02:55:25;14.70;;;10.80;;
33266;SDS011;19638;49.080;11.896;2022-07-26T02:59:30;19.02;;;11.15;;
33266;SDS011;19638;49.080;11.896;2022-07-26T03:03:33;18.52;;;12.50;;
33266;SDS011;19638;49.080;11.896;2022-07-26T03:07:38;17.95;;;12.10;;
33266;SDS011;19638;49.080;11.896;2022-07-26T03:11:41;22.05;;;12.40;;
33266;SDS011;19638;49.080;11.896;2022-07-26T03:15:46;19.20;;;12.80;;
33266;SDS011;19638;49.080;11.896;2022-07-26T03:19:49;22.52;;;13.10;;
33266;SDS011;19638;49.080;11.896;2022-07-26T03:23:52;19.83;;;13.00;;
33266;SDS011;19638;49.080;11.896;2022-07-26T03:27:56;19.35;;;12.35;;
33266;SDS011;19638;49.080;11.896;2022-07-26T03:32:00;20.38;;;13.00;;
33266;SDS011;19638;49.080;11.896;2022-07-26T03:36:05;28.08;;;14.30;;
33266;SDS011;19638;49.080;11.896;2022-07-26T03:40:16;21.77;;;13.05;;
33266;SDS011;19638;49.080;11.896;2022-07-26T03:44:20;20.67;;;13.88;;
33266;SDS011;19638;49.080;11.896;2022-07-26T03:48:24;19.38;;;13.63;;
33266;SDS011;19638;49.080;11.896;2022-07-26T03:52:27;21.55;;;13.23;;
33266;SDS011;19638;49.080;11.896;2022-07-26T03:56:31;21.45;;;13.30;;
33266;SDS011;19638;49.080;11.896;2022-07-26T04:00:34;21.80;;;13.80;;
33266;SDS011;19638;49.080;11.896;2022-07-26T04:04:39;19.98;;;12.18;;
33266;SDS011;19638;49.080;11.896;2022-07-26T04:08:42;19.38;;;12.15;;
33266;SDS011;19638;49.080;11.896;2022-07-26T04:12:45;19.65;;;12.15;;
33266;SDS011;19638;49.080;11.896;2022-07-26T04:16:48;19.77;;;11.90;;
33266;SDS011;19638;49.080;11.896;2022-07-26T04:20:53;19.13;;;12.20;;
33266;SDS011;19638;49.080;11.896;2022-07-26T04:24:57;18.95;;;11.82;;
33266;SDS011;19638;49.080;11.896;2022-07-26T04:29:00;19.70;;;11.32;;
33266;SDS011;19638;49.080;11.896;2022-07-26T04:33:04;16.92;;;11.48;;
33266;SDS011;19638;49.080;11.896;2022-07-26T04:37:10;19.67;;;11.52;;
33266;SDS011;19638;49.080;11.896;2022-07-26T04:41:13;16.80;;;11.45;;
33266;SDS011;19638;49.080;11.896;2022-07-26T04:45:16;19.67;;;11.77;;
33266;SDS011;19638;49.080;11.896;2022-07-26T04:49:20;17.88;;;11.07;;
33266;SDS011;19638;49.080;11.896;2022-07-26T04:53:24;21.45;;;11.25;;
33266;SDS011;19638;49.080;11.896;2022-07-26T04:57:28;17.13;;;11.93;;
33266;SDS011;19638;49.080;11.896;2022-07-26T05:01:31;18.10;;;10.60;;
33266;SDS011;19638;49.080;11.896;2022-07-26T05:05:34;14.60;;;10.02;;
33266;SDS011;19638;49.080;11.896;2022-07-26T05:09:39;15.98;;;10.63;;
33266;SDS011;19638;49.080;11.896;2022-07-26T05:13:42;17.38;;;9.50;;
33266;SDS011;19638;49.080;11.896;2022-07-26T05:17:46;16.38;;;8.95;;
33266;SDS011;19638;49.080;11.896;2022-07-26T05:21:49;14.05;;;8.23;;
33266;SDS011;19638;49.080;11.896;2022-07-26T05:25:54;10.50;;;7.40;;
33266;SDS011;19638;49.080;11.896;2022-07-26T05:29:57;10.32;;;7.63;;
33266;SDS011;19638;49.080;11.896;2022-07-26T05:34:01;11.32;;;7.30;;
33266;SDS011;19638;49.080;11.896;2022-07-26T05:38:05;11.50;;;6.75;;
33266;SDS011;19638;49.080;11.896;2022-07-26T05:42:09;9.77;;;6.43;;
33266;SDS011;19638;49.080;11.896;2022-07-26T05:46:13;13.98;;;6.70;;
33266;SDS011;19638;49.080;11.896;2022-07-26T05:50:17;7.47;;;6.22;;
33266;SDS011;19638;49.080;11.896;2022-07-26T05:54:21;9.73;;;5.78;;
33266;SDS011;19638;49.080;11.896;2022-07-26T05:58:25;12.45;;;5.70;;
33266;SDS011;19638;49.080;11.896;2022-07-26T06:02:28;5.65;;;4.65;;
33266;SDS011;19638;49.080;11.896;2022-07-26T06:06:32;6.95;;;4.38;;
33266;SDS011;19638;49.080;11.896;2022-07-26T06:10:35;6.82;;;5.28;;
33266;SDS011;19638;49.080;11.896;2022-07-26T06:14:39;5.80;;;5.03;;
33266;SDS011;19638;49.080;11.896;2022-07-26T06:18:43;7.85;;;5.45;;
33266;SDS011;19638;49.080;11.896;2022-07-26T06:22:46;8.73;;;5.15;;
33266;SDS011;19638;49.080;11.896;2022-07-26T06:26:49;7.40;;;5.13;;
33266;SDS011;19638;49.080;11.896;2022-07-26T06:30:58;4.82;;;4.25;;
33266;SDS011;19638;49.080;11.896;2022-07-26T06:35:02;7.53;;;4.85;;
33266;SDS011;19638;49.080;11.896;2022-07-26T06:39:06;8.95;;;4.35;;
33266;SDS011;19638;49.080;11.896;2022-07-26T06:43:09;4.35;;;3.38;;
33266;SDS011;19638;49.080;11.896;2022-07-26T06:47:14;4.43;;;3.38;;
33266;SDS011;19638;49.080;11.896;2022-07-26T06:51:17;5.28;;;2.85;;
33266;SDS011;19638;49.080;11.896;2022-07-26T06:55:20;5.63;;;3.97;;
33266;SDS011;19638;49.080;11.896;2022-07-26T06:59:23;4.72;;;3.70;;
33266;SDS011;19638;49.080;11.896;2022-07-26T07:03:28;4.13;;;3.40;;
33266;SDS011;19638;49.080;11.896;2022-07-26T07:07:31;10.38;;;3.80;;
33266;SDS011;19638;49.080;11.896;2022-07-26T07:11:36;7.10;;;3.22;;
33266;SDS011;19638;49.080;11.896;2022-07-26T07:15:40;7.75;;;3.35;;
33266;SDS011;19638;49.080;11.896;2022-07-26T07:19:44;5.25;;;3.83;;
33266;SDS011;19638;49.080;11.896;2022-07-26T07:23:48;6.47;;;3.33;;
33266;SDS011;19638;49.080;11.896;2022-07-26T07:27:52;4.80;;;3.15;;
33266;SDS011;19638;49.080;11.896;2022-07-26T07:31:55;8.93;;;3.20;;
33266;SDS011;19638;49.080;11.896;2022-07-26T07:36:00;5.18;;;3.38;;
33266;SDS011;19638;49.080;11.896;2022-07-26T07:40:04;7.05;;;3.10;;
33266;SDS011;19638;49.080;11.896;2022-07-26T07:44:08;5.47;;;2.90;;
33266;SDS011;19638;49.080;11.896;2022-07-26T07:48:12;4.05;;;2.67;;
33266;SDS011;19638;49.080;11.896;2022-07-26T07:52:16;4.20;;;2.85;;
33266;SDS011;19638;49.080;11.896;2022-07-26T07:56:19;10.10;;;3.50;;
33266;SDS011;19638;49.080;11.896;2022-07-26T08:00:23;6.25;;;3.08;;
33266;SDS011;19638;49.080;11.896;2022-07-26T08:04:28;6.85;;;3.17;;
33266;SDS011;19638;49.080;11.896;2022-07-26T08:08:32;5.65;;;3.17;;
33266;SDS011;19638;49.080;11.896;2022-07-26T08:12:36;6.93;;;3.50;;
33266;SDS011;19638;49.080;11.896;2022-07-26T08:16:39;3.00;;;2.60;;
33266;SDS011;19638;49.080;11.896;2022-07-26T08:20:45;3.20;;;2.90;;
33266;SDS011;19638;49.080;11.896;2022-07-26T08:24:50;2.72;;;2.25;;
33266;SDS011;19638;49.080;11.896;2022-07-26T08:28:53;5.03;;;2.40;;
33266;SDS011;19638;49.080;11.896;2022-07-26T08:32:59;5.85;;;2.70;;
33266;SDS011;19638;49.080;11.896;2022-07-26T08:37:04;5.40;;;2.90;;
33266;SDS011;19638;49.080;11.896;2022-07-26T08:41:19;4.53;;;2.38;;
33266;SDS011;19638;49.080;11.896;2022-07-26T08:45:24;3.95;;;2.50;;
33266;SDS011;19638;49.080;11.896;2022-07-26T08:49:29;5.15;;;2.85;;
33266;SDS011;19638;49.080;11.896;2022-07-26T08:53:32;4.65;;;2.65;;
33266;SDS011;19638;49.080;11.896;2022-07-26T08:57:39;2.67;;;1.92;;
33266;SDS011;19638;49.080;11.896;2022-07-26T09:01:50;9.30;;;2.45;;
33266;SDS011;19638;49.080;11.896;2022-07-26T09:05:54;4.43;;;2.50;;
33266;SDS011;19638;49.080;11.896;2022-07-26T09:10:02;3.35;;;2.40;;
33266;SDS011;19638;49.080;11.896;2022-07-26T09:14:08;4.38;;;1.73;;
33266;SDS011;19638;49.080;11.896;2022-07-26T09:18:23;1.80;;;1.70;;
33266;SDS011;19638;49.080;11.896;2022-07-26T09:22:27;2.75;;;2.53;;
33266;SDS011;19638;49.080;11.896;2022-07-26T09:26:30;2.17;;;1.88;;
33266;SDS011;19638;49.080;11.896;2022-07-26T09:30:35;5.70;;;1.98;;
33266;SDS011;19638;49.080;11.896;2022-07-26T09:34:39;3.53;;;2.15;;
33266;SDS011;19638;49.080;11.896;2022-07-26T09:38:54;1.70;;;1.60;;
33266;SDS011;19638;49.080;11.896;2022-07-26T09:43:00;2.42;;;2.10;;
33266;SDS011;19638;49.080;11.896;2022-07-26T09:47:06;2.00;;;1.90;;
33266;SDS011;19638;49.080;11.896;2022-07-26T09:51:10;1.77;;;1.67;;
33266;SDS011;19638;49.080;11.896;2022-07-26T09:55:13;1.98;;;1.70;;
33266;SDS011;19638;49.080;11.896;2022-07-26T09:59:17;1.67;;;1.58;;
33266;SDS011;19638;49.080;11.896;2022-07-26T10:03:23;4.15;;;1.60;;
33266;SDS011;19638;49.080;11.896;2022-07-26T10:07:27;3.55;;;1.83;;
33266;SDS011;19638;49.080;11.896;2022-07-26T10:11:31;1.85;;;1.73;;
33266;SDS011;19638;49.080;11.896;2022-07-26T10:15:39;3.63;;;1.88;;
33266;SDS011;19638;49.080;11.896;2022-07-26T10:19:48;5.18;;;1.90;;
33266;SDS011;19638;49.080;11.896;2022-07-26T10:23:52;2.10;;;1.80;;
33266;SDS011;19638;49.080;11.896;2022-07-26T10:27:57;3.40;;;1.95;;
33266;SDS011;19638;49.080;11.896;2022-07-26T10:32:16;2.22;;;1.60;;
33266;SDS011;19638;49.080;11.896;2022-07-26T10:36:24;7.18;;;2.08;;
33266;SDS011;19638;49.080;11.896;2022-07-26T10:40:29;4.75;;;1.70;;
33266;SDS011;19638;49.080;11.896;2022-07-26T10:44:33;6.63;;;1.92;;
33266;SDS011;19638;49.080;11.896;2022-07-26T10:48:42;1.70;;;1.60;;
33266;SDS011;19638;49.080;11.896;2022-07-26T10:52:58;4.57;;;2.45;;
33266;SDS011;19638;49.080;11.896;2022-07-26T10:57:03;2.10;;;2.00;;
33266;SDS011;19638;49.080;11.896;2022-07-26T11:01:06;2.03;;;1.75;;
33266;SDS011;19638;49.080;11.896;2022-07-26T11:05:11;2.72;;;1.83;;
33266;SDS011;19638;49.080;11.896;2022-07-26T11:09:17;2.83;;;2.03;;
33266;SDS011;19638;49.080;11.896;2022-07-26T11:13:21;2.90;;;2.00;;
33266;SDS011;19638;49.080;11.896;2022-07-26T11:17:25;5.72;;;1.92;;
33266;SDS011;19638;49.080;11.896;2022-07-26T11:21:29;2.47;;;1.80;;
33266;SDS011;19638;49.080;11.896;2022-07-26T11:25:34;1.83;;;1.67;;
33266;SDS011;19638;49.080;11.896;2022-07-26T11:29:38;1.70;;;1.60;;
33266;SDS011;19638;49.080;11.896;2022-07-26T11:33:49;2.25;;;1.70;;
33266;SDS011;19638;49.080;11.896;2022-07-26T11:37:53;1.35;;;1.33;;
33266;SDS011;19638;49.080;11.896;2022-07-26T11:42:13;3.75;;;1.40;;
33266;SDS011;19638;49.080;11.896;2022-07-26T11:46:20;3.03;;;1.77;;
33266;SDS011;19638;49.080;11.896;2022-07-26T11:50:23;3.42;;;1.65;;
33266;SDS011;19638;49.080;11.896;2022-07-26T11:54:27;2.92;;;1.60;;
33266;SDS011;19638;49.080;11.896;2022-07-26T11:58:32;1.65;;;1.55;;
33266;SDS011;19638;49.080;11.896;2022-07-26T12:02:36;3.08;;;1.98;;
33266;SDS011;19638;49.080;11.896;2022-07-26T12:06:39;2.47;;;2.00;;
33266;SDS011;19638;49.080;11.896;2022-07-26T12:10:42;2.03;;;1.73;;
33266;SDS011;19638;49.080;11.896;2022-07-26T12:14:57;5.70;;;1.90;;
33266;SDS011;19638;49.080;11.896;2022-07-26T12:19:02;1.77;;;1.67;;
33266;SDS011;19638;49.080;11.896;2022-07-26T12:23:05;1.80;;;1.70;;
33266;SDS011;19638;49.080;11.896;2022-07-26T12:27:09;3.38;;;1.63;;
33266;SDS011;19638;49.080;11.896;2022-07-26T12:31:23;1.70;;;1.60;;
33266;SDS011;19638;49.080;11.896;2022-07-26T12:35:28;3.63;;;1.70;;
33266;SDS011;19638;49.080;11.896;2022-07-26T12:39:36;2.92;;;1.95;;
33266;SDS011;19638;49.080;11.896;2022-07-26T12:43:39;2.00;;;1.90;;
33266;SDS011;19638;49.080;11.896;2022-07-26T12:47:52;2.97;;;1.70;;
33266;SDS011;19638;49.080;11.896;2022-07-26T12:51:55;4.72;;;1.80;;
33266;SDS011;19638;49.080;11.896;2022-07-26T12:55:59;2.45;;;1.73;;
33266;SDS011;19638;49.080;11.896;2022-07-26T13:00:03;2.70;;;1.48;;
33266;SDS011;19638;49.080;11.896;2022-07-26T13:04:08;2.20;;;1.50;;
33266;SDS011;19638;49.080;11.896;2022-07-26T13:08:12;3.58;;;1.60;;
33266;SDS011;19638;49.080;11.896;2022-07-26T13:12:15;5.65;;;1.45;;
33266;SDS011;19638;49.080;11.896;2022-07-26T13:16:19;1.38;;;1.30;;
33266;SDS011;19638;49.080;11.896;2022-07-26T13:20:23;1.80;;;1.50;;
33266;SDS011;19638;49.080;11.896;2022-07-26T13:24:27;1.77;;;1.30;;
33266;SDS011;19638;49.080;11.896;2022-07-26T13:28:32;3.85;;;1.48;;
33266;SDS011;19638;49.080;11.896;2022-07-26T13:32:35;1.80;;;1.70;;
33266;SDS011;19638;49.080;11.896;2022-07-26T13:36:40;1.75;;;1.58;;
33266;SDS011;19638;49.080;11.896;2022-07-26T13:40:44;2.10;;;1.50;;
33266;SDS011;19638;49.080;11.896;2022-07-26T13:44:47;3.40;;;1.42;;
33266;SDS011;19638;49.080;11.896;2022-07-26T13:48:50;2.15;;;1.40;;
33266;SDS011;19638;49.080;11.896;2022-07-26T13:53:03;3.58;;;1.38;;
33266;SDS011;19638;49.080;11.896;2022-07-26T13:57:06;2.50;;;1.67;;
33266;SDS011;19638;49.080;11.896;2022-07-26T14:01:09;3.00;;;1.33;;
33266;SDS011;19638;49.080;11.896;2022-07-26T14:05:12;5.05;;;1.60;;
33266;SDS011;19638;49.080;11.896;2022-07-26T14:09:17;1.17;;;1.13;;
33266;SDS011;19638;49.080;11.896;2022-07-26T14:13:21;1.30;;;1.30;;
33266;SDS011;19638;49.080;11.896;2022-07-26T14:17:24;1.40;;;1.30;;
33266;SDS011;19638;49.080;11.896;2022-07-26T14:21:28;4.65;;;1.30;;
33266;SDS011;19638;49.080;11.896;2022-07-26T14:25:54;2.63;;;1.35;;
33266;SDS011;19638;49.080;11.896;2022-07-26T14:29:58;1.75;;;1.30;;
33266;SDS011;19638;49.080;11.896;2022-07-26T14:34:01;2.75;;;1.30;;
33266;SDS011;19638;49.080;11.896;2022-07-26T14:38:04;2.03;;;1.35;;
33266;SDS011;19638;49.080;11.896;2022-07-26T14:42:09;2.80;;;1.38;;
33266;SDS011;19638;49.080;11.896;2022-07-26T14:46:12;1.83;;;1.33;;
33266;SDS011;19638;49.080;11.896;2022-07-26T14:50:15;1.30;;;1.30;;
33266;SDS011;19638;49.080;11.896;2022-07-26T14:54:19;1.58;;;1.38;;
33266;SDS011;19638;49.080;11.896;2022-07-26T14:58:24;1.40;;;1.30;;
33266;SDS011;19638;49.080;11.896;2022-07-26T15:02:27;1.20;;;1.20;;
33266;SDS011;19638;49.080;11.896;2022-07-26T15:06:30;4.57;;;1.30;;
33266;SDS011;19638;49.080;11.896;2022-07-26T15:10:33;1.20;;;1.20;;
33266;SDS011;19638;49.080;11.896;2022-07-26T15:14:38;1.60;;;1.40;;
33266;SDS011;19638;49.080;11.896;2022-07-26T15:18:42;1.95;;;1.20;;
33266;SDS011;19638;49.080;11.896;2022-07-26T15:22:45;3.97;;;1.30;;
33266;SDS011;19638;49.080;11.896;2022-07-26T15:26:49;1.30;;;1.20;;
33266;SDS011;19638;49.080;11.896;2022-07-26T15:30:53;2.50;;;1.10;;
33266;SDS011;19638;49.080;11.896;2022-07-26T15:34:56;1.98;;;1.40;;
33266;SDS011;19638;49.080;11.896;2022-07-26T15:39:00;1.33;;;1.23;;
33266;SDS011;19638;49.080;11.896;2022-07-26T15:43:18;1.58;;;1.38;;
33266;SDS011;19638;49.080;11.896;2022-07-26T15:47:44;1.40;;;1.30;;
33266;SDS011;19638;49.080;11.896;2022-07-26T15:52:05;2.35;;;1.33;;
33266;SDS011;19638;49.080;11.896;2022-07-26T15:56:09;1.10;;;1.10;;
33266;SDS011;19638;49.080;11.896;2022-07-26T16:00:13;1.77;;;1.38;;
33266;SDS011;19638;49.080;11.896;2022-07-26T16:04:19;1.65;;;1.55;;
33266;SDS011;19638;49.080;11.896;2022-07-26T16:08:22;1.20;;;1.20;;
33266;SDS011;19638;49.080;11.896;2022-07-26T16:12:26;4.40;;;1.63;;
33266;SDS011;19638;49.080;11.896;2022-07-26T16:16:29;7.10;;;1.33;;
33266;SDS011;19638;49.080;11.896;2022-07-26T16:20:34;1.08;;;1.00;;
33266;SDS011;19638;49.080;11.896;2022-07-26T16:24:37;6.88;;;1.38;;
33266;SDS011;19638;49.080;11.896;2022-07-26T16:28:41;1.15;;;1.15;;
33266;SDS011;19638;49.080;11.896;2022-07-26T16:32:44;1.77;;;1.42;;
33266;SDS011;19638;49.080;11.896;2022-07-26T16:36:50;1.38;;;1.25;;
33266;SDS011;19638;49.080;11.896;2022-07-26T16:40:53;1.17;;;1.17;;
33266;SDS011;19638;49.080;11.896;2022-07-26T16:44:56;1.30;;;1.20;;
33266;SDS011;19638;49.080;11.896;2022-07-26T16:48:59;1.40;;;1.30;;
33266;SDS011;19638;49.080;11.896;2022-07-26T16:53:06;1.10;;;1.10;;
33266;SDS011;19638;49.080;11.896;2022-07-26T16:57:13;1.30;;;1.20;;
33266;SDS011;19638;49.080;11.896;2022-07-26T17:01:16;2.42;;;1.20;;
33266;SDS011;19638;49.080;11.896;2022-07-26T17:05:20;1.35;;;1.25;;
33266;SDS011;19638;49.080;11.896;2022-07-26T17:09:25;2.25;;;1.17;;
33266;SDS011;19638;49.080;11.896;2022-07-26T17:13:28;1.10;;;1.10;;
33266;SDS011;19638;49.080;11.896;2022-07-26T17:17:31;2.00;;;1.17;;
33266;SDS011;19638;49.080;11.896;2022-07-26T17:21:34;1.25;;;1.15;;
33266;SDS011;19638;49.080;11.896;2022-07-26T17:25:39;9.35;;;1.40;;
33266;SDS011;19638;49.080;11.896;2022-07-26T17:29:42;4.43;;;1.10;;
33266;SDS011;19638;49.080;11.896;2022-07-26T17:33:46;2.42;;;1.23;;
33266;SDS011;19638;49.080;11.896;2022-07-26T17:37:50;1.10;;;1.10;;
33266;SDS011;19638;49.080;11.896;2022-07-26T17:41:58;2.67;;;1.27;;
33266;SDS011;19638;49.080;11.896;2022-07-26T17:46:01;2.15;;;1.08;;
33266;SDS011;19638;49.080;11.896;2022-07-26T17:50:05;1.52;;;1.42;;
33266;SDS011;19638;49.080;11.896;2022-07-26T17:54:29;2.20;;;1.30;;
33266;SDS011;19638;49.080;11.896;2022-07-26T17:58:34;1.20;;;1.10;;
33266;SDS011;19638;49.080;11.896;2022-07-26T18:02:37;2.38;;;1.27;;
33266;SDS011;19638;49.080;11.896;2022-07-26T18:06:40;7.35;;;1.10;;
33266;SDS011;19638;49.080;11.896;2022-07-26T18:10:44;5.20;;;1.30;;
33266;SDS011;19638;49.080;11.896;2022-07-26T18:14:53;3.97;;;1.27;;
33266;SDS011;19638;49.080;11.896;2022-07-26T18:18:56;1.50;;;1.15;;
33266;SDS011;19638;49.080;11.896;2022-07-26T18:22:59;2.85;;;1.35;;
33266;SDS011;19638;49.080;11.896;2022-07-26T18:27:03;2.75;;;1.05;;
33266;SDS011;19638;49.080;11.896;2022-07-26T18:31:08;3.72;;;1.00;;
33266;SDS011;19638;49.080;11.896;2022-07-26T18:35:11;1.10;;;1.00;;
33266;SDS011;19638;49.080;11.896;2022-07-26T18:39:14;2.95;;;1.20;;
33266;SDS011;19638;49.080;11.896;2022-07-26T18:43:18;2.97;;;1.20;;
33266;SDS011;19638;49.080;11.896;2022-07-26T18:47:22;1.15;;;1.00;;
33266;SDS011;19638;49.080;11.896;2022-07-26T18:51:26;5.85;;;1.05;;
33266;SDS011;19638;49.080;11.896;2022-07-26T18:55:32;2.38;;;1.30;;
33266;SDS011;19638;49.080;11.896;2022-07-26T18:59:35;4.03;;;0.95;;
33266;SDS011;19638;49.080;11.896;2022-07-26T19:03:41;2.72;;;1.30;;
33266;SDS011;19638;49.080;11.896;2022-07-26T19:07:45;4.18;;;1.10;;
33266;SDS011;19638;49.080;11.896;2022-07-26T19:11:48;1.98;;;1.20;;
33266;SDS011;19638;49.080;11.896;2022-07-26T19:15:51;5.68;;;1.17;;
33266;SDS011;19638;49.080;11.896;2022-07-26T19:19:56;2.72;;;1.10;;
33266;SDS011;19638;49.080;11.896;2022-07-26T19:24:00;1.40;;;1.20;;
33266;SDS011;19638;49.080;11.896;2022-07-26T19:28:03;1.33;;;1.20;;
33266;SDS011;19638;49.080;11.896;2022-07-26T19:32:10;5.55;;;1.60;;
33266;SDS011;19638;49.080;11.896;2022-07-26T19:36:14;5.15;;;1.58;;
33266;SDS011;19638;49.080;11.896;2022-07-26T19:40:26;1.25;;;1.20;;
33266;SDS011;19638;49.080;11.896;2022-07-26T19:44:30;2.67;;;1.35;;
33266;SDS011;19638;49.080;11.896;2022-07-26T19:48:34;2.47;;;1.50;;
33266;SDS011;19638;49.080;11.896;2022-07-26T19:52:39;1.65;;;1.30;;
33266;SDS011;19638;49.080;11.896;2022-07-26T19:56:42;7.32;;;1.55;;
33266;SDS011;19638;49.080;11.896;2022-07-26T20:00:45;3.40;;;1.48;;
33266;SDS011;19638;49.080;11.896;2022-07-26T20:04:49;1.58;;;1.38;;
33266;SDS011;19638;49.080;11.896;2022-07-26T20:08:54;1.58;;;1.40;;
33266;SDS011;19638;49.080;11.896;2022-07-26T20:12:57;2.80;;;1.48;;
33266;SDS011;19638;49.080;11.896;2022-07-26T20:17:00;3.65;;;1.52;;
33266;SDS011;19638;49.080;11.896;2022-07-26T20:21:12;5.18;;;1.45;;
33266;SDS011;19638;49.080;11.896;2022-07-26T20:25:17;3.00;;;1.50;;
33266;SDS011;19638;49.080;11.896;2022-07-26T20:29:22;2.47;;;1.45;;
33266;SDS011;19638;49.080;11.896;2022-07-26T20:33:25;3.90;;;1.60;;
33266;SDS011;19638;49.080;11.896;2022-07-26T20:37:28;1.52;;;1.40;;
33266;SDS011;19638;49.080;11.896;2022-07-26T20:41:33;1.90;;;1.80;;
33266;SDS011;19638;49.080;11.896;2022-07-26T20:45:37;2.65;;;1.60;;
33266;SDS011;19638;49.080;11.896;2022-07-26T20:49:40;3.30;;;1.45;;
33266;SDS011;19638;49.080;11.896;2022-07-26T20:53:43;3.53;;;1.40;;
33266;SDS011;19638;49.080;11.896;2022-07-26T20:57:48;4.38;;;2.17;;
33266;SDS011;19638;49.080;11.896;2022-07-26T21:01:51;1.83;;;1.67;;
33266;SDS011;19638;49.080;11.896;2022-07-26T21:05:54;3.20;;;1.98;;
33266;SDS011;19638;49.080;11.896;2022-07-26T21:09:58;2.58;;;1.80;;
33266;SDS011;19638;49.080;11.896;2022-07-26T21:14:03;7.25;;;1.77;;
33266;SDS011;19638;49.080;11.896;2022-07-26T21:18:06;2.45;;;1.60;;
33266;SDS011;19638;49.080;11.896;2022-07-26T21:22:12;4.15;;;1.75;;
33266;SDS011;19638;49.080;11.896;2022-07-26T21:26:15;4.63;;;2.42;;
33266;SDS011;19638;49.080;11.896;2022-07-26T21:30:20;1.60;;;1.60;;
33266;SDS011;19638;49.080;11.896;2022-07-26T21:34:23;5.38;;;1.92;;
33266;SDS011;19638;49.080;11.896;2022-07-26T21:38:27;4.78;;;2.00;;
33266;SDS011;19638;49.080;11.896;2022-07-26T21:42:32;5.93;;;2.20;;
33266;SDS011;19638;49.080;11.896;2022-07-26T21:46:37;7.43;;;2.22;;
33266;SDS011;19638;49.080;11.896;2022-07-26T21:50:40;2.28;;;1.52;;
33266;SDS011;19638;49.080;11.896;2022-07-26T21:54:43;3.22;;;1.90;;
33266;SDS011;19638;49.080;11.896;2022-07-26T21:58:46;4.10;;;1.80;;
33266;SDS011;19638;49.080;11.896;2022-07-26T22:02:51;1.83;;;1.70;;
33266;SDS011;19638;49.080;11.896;2022-07-26T22:06:54;4.03;;;1.90;;
33266;SDS011;19638;49.080;11.896;2022-07-26T22:10:57;3.60;;;1.98;;
33266;SDS011;19638;49.080;11.896;2022-07-26T22:15:00;3.88;;;1.90;;
33266;SDS011;19638;49.080;11.896;2022-07-26T22:19:05;5.03;;;2.22;;
33266;SDS011;19638;49.080;11.896;2022-07-26T22:23:09;2.70;;;2.00;;
33266;SDS011;19638;49.080;11.896;2022-07-26T22:27:13;3.05;;;1.90;;
33266;SDS011;19638;49.080;11.896;2022-07-26T22:31:17;7.68;;;1.90;;
33266;SDS011;19638;49.080;11.896;2022-07-26T22:35:21;2.35;;;2.13;;
33266;SDS011;19638;49.080;11.896;2022-07-26T22:39:27;2.65;;;2.03;;
33266;SDS011;19638;49.080;11.896;2022-07-26T22:43:33;3.35;;;2.38;;
33266;SDS011;19638;49.080;11.896;2022-07-26T22:47:37;3.40;;;2.00;;
33266;SDS011;19638;49.080;11.896;2022-07-26T22:51:57;5.70;;;1.90;;
33266;SDS011;19638;49.080;11.896;2022-07-26T22:56:01;5.15;;;1.70;;
33266;SDS011;19638;49.080;11.896;2022-07-26T23:00:04;8.88;;;2.35;;
33266;SDS011;19638;49.080;11.896;2022-07-26T23:04:09;3.40;;;2.00;;
33266;SDS011;19638;49.080;11.896;2022-07-26T23:08:14;3.40;;;2.00;;
33266;SDS011;19638;49.080;11.896;2022-07-26T23:12:37;5.38;;;1.80;;
33266;SDS011;19638;49.080;11.896;2022-07-26T23:16:42;4.45;;;1.90;;
33266;SDS011;19638;49.080;11.896;2022-07-26T23:20:45;9.55;;;3.35;;
33266;SDS011;19638;49.080;11.896;2022-07-26T23:24:50;2.78;;;2.58;;
33266;SDS011;19638;49.080;11.896;2022-07-26T23:28:53;4.45;;;3.67;;
33266;SDS011;19638;49.080;11.896;2022-07-26T23:32:56;6.72;;;4.10;;
33266;SDS011;19638;49.080;11.896;2022-07-26T23:36:59;6.43;;;3.38;;
33266;SDS011;19638;49.080;11.896;2022-07-26T23:41:04;3.10;;;2.38;;
33266;SDS011;19638;49.080;11.896;2022-07-26T23:45:08;5.85;;;2.40;;
33266;SDS011;19638;49.080;11.896;2022-07-26T23:49:11;6.90;;;4.53;;
33266;SDS011;19638;49.080;11.896;2022-07-26T23:53:15;6.93;;;4.18;;
33266;SDS011;19638;49.080;11.896;2022-07-26T23:57:28;8.02;;;5.03;;
